Time;durP1;ratioP1;P1;durP2;ratioP2;P2;SDS_P1;SDS_P2;PMS_P1;PMS_P2;Temp;Humidity;BMP_temperature;BMP_pressure;BME280_temperature;BME280_humidity;BME280_pressure;Samples;Min_cycle;Max_cycle;Signal;HPM_P1;HPM_P2
2023/05/02 00:00:44;;;;;;;0.85;0.60;;;10.20;99.90;;;;;;5110115;28;20043;-67
2023/05/02 00:03:10;;;;;;;0.95;0.75;;;10.20;99.90;;;;;;5110682;28;20038;-65
2023/05/02 00:05:36;;;;;;;0.80;0.57;;;10.20;99.90;;;;;;5110467;28;20047;-64
2023/05/02 00:08:02;;;;;;;1.77;0.45;;;10.20;99.90;;;;;;5110407;28;20043;-66
2023/05/02 00:10:28;;;;;;;1.75;1.27;;;10.10;99.90;;;;;;5110462;28;20480;-66
2023/05/02 00:12:53;;;;;;;1.17;0.63;;;10.10;99.90;;;;;;5111813;28;20126;-65
2023/05/02 00:15:19;;;;;;;0.75;0.40;;;10.10;99.90;;;;;;5109850;28;20092;-65
2023/05/02 00:17:45;;;;;;;1.67;0.98;;;10.00;99.90;;;;;;5110238;28;20036;-65
2023/05/02 00:20:11;;;;;;;1.30;0.73;;;10.00;99.90;;;;;;5127698;27;20476;-65
2023/05/02 00:22:38;;;;;;;5.70;1.35;;;10.00;99.90;;;;;;5109783;28;20067;-67
2023/05/02 00:25:04;;;;;;;2.50;1.77;;;10.00;99.90;;;;;;5110430;28;20599;-66
2023/05/02 00:27:31;;;;;;;3.85;0.95;;;10.00;99.90;;;;;;5110122;28;20047;-66
2023/05/02 00:29:58;;;;;;;0.70;0.50;;;10.00;99.90;;;;;;5109503;28;20086;-65
2023/05/02 00:32:24;;;;;;;1.77;0.95;;;10.00;99.90;;;;;;5110060;28;20793;-66
2023/05/02 00:34:50;;;;;;;0.77;0.70;;;10.00;99.90;;;;;;5110007;28;20075;-67
2023/05/02 00:37:15;;;;;;;1.05;0.70;;;10.00;99.90;;;;;;5109298;28;20039;-67
2023/05/02 00:39:41;;;;;;;0.80;0.60;;;10.00;99.90;;;;;;5110203;28;20122;-67
2023/05/02 00:42:07;;;;;;;0.60;0.60;;;10.00;99.90;;;;;;5111471;28;20092;-66
2023/05/02 00:44:33;;;;;;;1.20;0.65;;;10.00;99.90;;;;;;5109232;28;20508;-67
2023/05/02 00:47:00;;;;;;;1.08;0.65;;;10.00;99.90;;;;;;5109864;28;20123;-67
2023/05/02 00:49:27;;;;;;;2.58;0.95;;;10.10;99.90;;;;;;5109781;28;20427;-67
2023/05/02 00:51:53;;;;;;;2.10;1.00;;;10.10;99.90;;;;;;5126263;27;20140;-67
2023/05/02 00:54:19;;;;;;;1.23;0.80;;;10.00;99.90;;;;;;5127049;27;20043;-67
2023/05/02 00:56:46;;;;;;;1.10;0.40;;;10.00;99.90;;;;;;5109052;28;20045;-66
2023/05/02 00:59:13;;;;;;;9.48;1.17;;;10.10;99.90;;;;;;5109539;28;20040;-67
2023/05/02 01:01:52;;;;;;;0.65;0.60;;;10.00;99.90;;;;;;5109760;28;20035;-67
2023/05/02 01:04:36;;;;;;;0.63;0.30;;;10.00;99.90;;;;;;5109063;28;20041;-66
2023/05/02 01:07:13;;;;;;;5.65;1.50;;;10.00;99.90;;;;;;5110793;28;20054;-67
2023/05/02 01:09:45;;;;;;;3.22;0.88;;;10.00;99.90;;;;;;5109718;28;20380;-67
2023/05/02 01:12:28;;;;;;;1.35;0.57;;;9.90;99.90;;;;;;5126278;27;20035;-67
2023/05/02 01:14:57;;;;;;;0.60;0.40;;;9.90;99.90;;;;;;5111033;28;20104;-67
2023/05/02 01:17:27;;;;;;;0.85;0.75;;;9.90;99.90;;;;;;5110891;28;20127;-67
2023/05/02 01:19:57;;;;;;;0.57;0.40;;;9.90;99.90;;;;;;5108571;28;20040;-67
2023/05/02 01:22:28;;;;;;;0.95;0.43;;;9.90;99.90;;;;;;5110420;28;20046;-68
2023/05/02 01:25:19;;;;;;;1.60;0.63;;;9.80;99.90;;;;;;5110142;28;20106;-67
2023/05/02 01:27:45;;;;;;;0.93;0.50;;;9.80;99.90;;;;;;5110938;28;20078;-66
2023/05/02 01:30:12;;;;;;;0.88;0.55;;;9.70;99.90;;;;;;5110545;28;20075;-66
2023/05/02 01:32:40;;;;;;;0.85;0.40;;;9.70;99.90;;;;;;5109879;28;20087;-67
2023/05/02 01:35:08;;;;;;;0.75;0.50;;;9.70;99.90;;;;;;5110602;28;20044;-67
2023/05/02 01:37:37;;;;;;;1.50;0.50;;;9.70;99.90;;;;;;5110546;28;20118;-73
2023/05/02 01:40:04;;;;;;;2.22;0.57;;;9.70;99.90;;;;;;5108780;28;20040;-67
2023/05/02 01:42:33;;;;;;;0.40;0.30;;;9.70;99.90;;;;;;5109101;28;20097;-67
2023/05/02 01:45:01;;;;;;;0.90;0.40;;;9.70;99.90;;;;;;5109145;28;20036;-67
2023/05/02 01:47:31;;;;;;;2.92;0.30;;;9.70;99.90;;;;;;5110100;28;20602;-65
2023/05/02 01:49:58;;;;;;;0.77;0.50;;;9.70;99.90;;;;;;5108949;28;20039;-66
2023/05/02 01:52:26;;;;;;;2.30;0.57;;;9.70;99.90;;;;;;5109032;28;20108;-66
2023/05/02 01:54:54;;;;;;;0.63;0.40;;;9.70;99.90;;;;;;5109778;28;20105;-65
2023/05/02 01:57:20;;;;;;;1.27;0.40;;;9.60;99.90;;;;;;5109109;28;20119;-67
2023/05/02 01:59:47;;;;;;;3.50;0.90;;;9.60;99.90;;;;;;5108637;28;20088;-67
2023/05/02 02:02:14;;;;;;;2.38;0.65;;;9.50;99.90;;;;;;5130151;27;20480;-65
2023/05/02 02:04:41;;;;;;;0.70;0.50;;;9.50;99.90;;;;;;5114350;28;20039;-66
2023/05/02 02:07:11;;;;;;;5.65;0.90;;;9.40;99.90;;;;;;5113647;28;20692;-66
2023/05/02 02:09:37;;;;;;;2.60;1.10;;;9.40;99.90;;;;;;5112894;28;20085;-66
2023/05/02 02:12:10;;;;;;;1.83;0.65;;;9.30;99.90;;;;;;5112788;28;20054;-67
2023/05/02 02:14:40;;;;;;;1.17;0.80;;;9.30;99.90;;;;;;5129201;27;20051;-65
2023/05/02 02:17:14;;;;;;;0.37;0.33;;;9.30;99.90;;;;;;5113944;28;20043;-67
2023/05/02 02:19:41;;;;;;;5.57;0.73;;;9.20;99.90;;;;;;5112863;28;20352;-66
2023/05/02 02:22:08;;;;;;;1.50;0.77;;;9.20;99.90;;;;;;5129018;27;20485;-66
2023/05/02 02:24:36;;;;;;;3.60;0.95;;;9.20;99.90;;;;;;5112523;28;20035;-66
2023/05/02 02:27:02;;;;;;;1.20;0.70;;;9.10;99.90;;;;;;5113903;28;20040;-65
2023/05/02 02:29:28;;;;;;;1.02;0.57;;;9.10;99.90;;;;;;5113621;28;20473;-66
2023/05/02 02:31:54;;;;;;;0.70;0.47;;;9.00;99.90;;;;;;5114027;28;20035;-67
2023/05/02 02:34:20;;;;;;;3.30;1.20;;;9.00;99.90;;;;;;5112396;28;20070;-66
2023/05/02 02:36:59;;;;;;;0.32;0.30;;;9.00;99.90;;;;;;5111610;28;20497;-66
2023/05/02 02:39:37;;;;;;;2.05;0.90;;;9.00;99.90;;;;;;5112376;28;20039;-66
2023/05/02 02:42:17;;;;;;;0.73;0.57;;;8.90;99.90;;;;;;5111648;28;20040;-65
2023/05/02 02:44:55;;;;;;;4.15;1.15;;;8.80;99.90;;;;;;5112223;28;20073;-66
2023/05/02 02:47:25;;;;;;;3.05;0.88;;;8.80;99.90;;;;;;5112326;28;20064;-65
2023/05/02 02:50:08;;;;;;;1.85;0.60;;;8.80;99.90;;;;;;5111555;28;20071;-67
2023/05/02 02:52:52;;;;;;;3.05;1.38;;;8.70;99.90;;;;;;5112149;28;20043;-66
2023/05/02 02:55:35;;;;;;;1.60;1.23;;;8.70;99.90;;;;;;5112127;28;20043;-66
2023/05/02 02:58:16;;;;;;;0.93;0.70;;;8.60;99.90;;;;;;5111963;28;20493;-65
2023/05/02 03:00:43;;;;;;;1.77;0.73;;;8.60;99.90;;;;;;5112281;28;20527;-66
2023/05/02 03:03:12;;;;;;;2.22;0.60;;;8.60;99.90;;;;;;5111269;28;20050;-66
2023/05/02 03:05:38;;;;;;;2.67;1.25;;;8.50;99.90;;;;;;5111678;28;20043;-67
2023/05/02 03:08:04;;;;;;;4.85;1.05;;;8.50;99.90;;;;;;5113318;28;20047;-66
2023/05/02 03:10:30;;;;;;;2.58;1.55;;;8.40;99.90;;;;;;5111292;28;20032;-68
2023/05/02 03:12:55;;;;;;;1.48;0.77;;;8.40;99.90;;;;;;5111508;28;20558;-66
2023/05/02 03:15:41;;;;;;;4.20;1.00;;;8.30;99.90;;;;;;5113134;28;20108;-66
2023/05/02 03:18:07;;;;;;;1.52;1.13;;;8.20;99.90;;;;;;5128033;27;20079;-67
2023/05/02 03:20:33;;;;;;;3.40;0.88;;;8.20;99.90;;;;;;5111539;28;20066;-68
2023/05/02 03:22:58;;;;;;;1.35;1.05;;;8.10;99.90;;;;;;5128982;27;20110;-67
2023/05/02 03:25:24;;;;;;;2.67;1.35;;;8.10;99.90;;;;;;5112045;28;20485;-67
2023/05/02 03:27:50;;;;;;;0.77;0.40;;;8.00;99.90;;;;;;5111164;28;20046;-67
2023/05/02 03:30:16;;;;;;;3.38;1.15;;;8.00;99.90;;;;;;5112638;28;20040;-68
2023/05/02 03:32:41;;;;;;;5.82;1.15;;;8.00;99.90;;;;;;5110837;28;20035;-67
2023/05/02 03:35:07;;;;;;;1.02;0.80;;;8.00;99.90;;;;;;5111503;28;20055;-67
2023/05/02 03:37:34;;;;;;;0.75;0.70;;;8.00;99.90;;;;;;5110685;28;20047;-67
2023/05/02 03:39:59;;;;;;;1.63;0.73;;;7.90;99.90;;;;;;5111219;28;20039;-66
2023/05/02 03:42:25;;;;;;;1.23;1.05;;;7.90;99.90;;;;;;5111221;28;20047;-67
2023/05/02 03:44:52;;;;;;;1.10;0.80;;;7.90;99.90;;;;;;5110518;28;20122;-67
2023/05/02 03:47:18;;;;;;;6.78;1.60;;;7.90;99.90;;;;;;5112496;28;20405;-67
2023/05/02 03:49:44;;;;;;;5.15;1.40;;;7.90;99.90;;;;;;5112144;28;20481;-67
2023/05/02 03:52:10;;;;;;;7.82;1.88;;;7.90;99.90;;;;;;5110218;28;20036;-67
2023/05/02 03:54:35;;;;;;;3.30;0.75;;;7.90;99.90;;;;;;5110999;28;20246;-65
2023/05/02 03:57:03;;;;;;;0.40;0.30;;;7.90;99.90;;;;;;5110847;28;20127;-67
2023/05/02 03:59:32;;;;;;;4.60;0.73;;;7.80;99.90;;;;;;5109949;28;20040;-66
2023/05/02 04:01:58;;;;;;;3.05;0.90;;;7.80;99.90;;;;;;5110746;28;20035;-68
2023/05/02 04:04:24;;;;;;;2.47;0.80;;;7.70;99.90;;;;;;5110800;28;20486;-68
2023/05/02 04:06:50;;;;;;;1.02;0.57;;;7.70;99.90;;;;;;5110056;28;20035;-66
2023/05/02 04:09:17;;;;;;;1.25;0.65;;;7.70;99.90;;;;;;5110598;28;20571;-68
2023/05/02 04:11:43;;;;;;;2.80;0.45;;;7.70;99.90;;;;;;5127849;27;20081;-67
2023/05/02 04:14:09;;;;;;;5.05;1.23;;;7.70;99.90;;;;;;5109697;28;20048;-67
2023/05/02 04:16:35;;;;;;;1.10;0.40;;;7.60;99.90;;;;;;5127831;27;20032;-67
2023/05/02 04:19:00;;;;;;;1.67;0.50;;;7.60;99.90;;;;;;5111720;28;20135;-67
2023/05/02 04:21:26;;;;;;;1.60;0.40;;;7.60;99.90;;;;;;5110974;28;20389;-67
2023/05/02 04:23:52;;;;;;;0.43;0.40;;;7.60;99.90;;;;;;5110151;28;20050;-67
2023/05/02 04:26:18;;;;;;;1.65;0.65;;;7.60;99.90;;;;;;5110219;28;20497;-65
2023/05/02 04:28:43;;;;;;;3.53;0.47;;;7.60;99.90;;;;;;5109737;28;20187;-66
2023/05/02 04:31:10;;;;;;;1.08;0.88;;;7.60;99.90;;;;;;5109918;28;20043;-66
2023/05/02 04:33:35;;;;;;;0.85;0.43;;;7.60;99.90;;;;;;5109205;28;20044;-67
2023/05/02 04:36:01;;;;;;;1.00;0.30;;;7.60;99.90;;;;;;5127499;27;20039;-67
2023/05/02 04:38:27;;;;;;;0.82;0.70;;;7.60;99.90;;;;;;5109992;28;20513;-67
2023/05/02 04:40:53;;;;;;;1.15;0.82;;;7.60;99.90;;;;;;5126428;27;20044;-66
2023/05/02 04:43:19;;;;;;;2.72;0.52;;;7.60;99.90;;;;;;5110182;28;20040;-68
2023/05/02 04:45:45;;;;;;;2.83;0.88;;;7.60;99.90;;;;;;5109825;28;20409;-67
2023/05/02 04:48:11;;;;;;;1.08;0.63;;;7.60;99.90;;;;;;5109440;28;20097;-65
2023/05/02 04:50:36;;;;;;;2.40;0.50;;;7.60;99.90;;;;;;5109716;28;20055;-66
2023/05/02 04:53:03;;;;;;;3.20;0.55;;;7.60;99.90;;;;;;5109630;28;20040;-66
2023/05/02 04:55:29;;;;;;;0.70;0.45;;;7.60;99.90;;;;;;5125947;27;20485;-66
2023/05/02 04:57:54;;;;;;;1.17;0.50;;;7.60;99.90;;;;;;5109563;28;20508;-67
2023/05/02 05:00:20;;;;;;;0.60;0.38;;;7.60;99.90;;;;;;5126615;27;20031;-67
2023/05/02 05:02:46;;;;;;;0.43;0.30;;;7.60;99.90;;;;;;5108998;28;20043;-68
2023/05/02 05:05:12;;;;;;;0.32;0.32;;;7.60;99.90;;;;;;5109276;28;20040;-67
2023/05/02 05:07:38;;;;;;;0.30;0.22;;;7.50;99.90;;;;;;5109302;28;20044;-67
2023/05/02 05:10:04;;;;;;;0.40;0.30;;;7.50;99.90;;;;;;5108934;28;20093;-65
2023/05/02 05:12:30;;;;;;;0.30;0.30;;;7.50;99.90;;;;;;5109393;28;20039;-67
2023/05/02 05:14:56;;;;;;;0.20;0.20;;;7.50;99.90;;;;;;5126004;27;20130;-67
2023/05/02 05:17:22;;;;;;;0.47;0.38;;;7.60;99.90;;;;;;5107662;28;20043;-67
2023/05/02 05:19:48;;;;;;;0.20;0.20;;;7.60;99.90;;;;;;5109803;28;20031;-67
2023/05/02 05:22:15;;;;;;;0.70;0.63;;;7.60;99.90;;;;;;5108422;28;20043;-67
2023/05/02 05:24:41;;;;;;;1.30;0.40;;;7.70;99.90;;;;;;5107804;28;20047;-67
2023/05/02 05:27:07;;;;;;;0.45;0.40;;;7.80;99.90;;;;;;5110503;28;20409;-67
2023/05/02 05:29:32;;;;;;;1.05;0.40;;;7.80;99.90;;;;;;5109942;28;20040;-66
2023/05/02 05:31:58;;;;;;;0.85;0.50;;;7.80;99.90;;;;;;5109548;28;20055;-67
2023/05/02 05:34:25;;;;;;;1.13;0.40;;;7.80;99.90;;;;;;5126078;28;20423;-66
2023/05/02 05:36:51;;;;;;;0.65;0.30;;;7.80;99.90;;;;;;5107975;28;20051;-66
2023/05/02 05:39:17;;;;;;;0.80;0.52;;;7.80;99.90;;;;;;5109129;28;20100;-66
2023/05/02 05:41:42;;;;;;;0.40;0.20;;;7.80;99.90;;;;;;5109586;28;20100;-67
2023/05/02 05:44:08;;;;;;;0.65;0.52;;;7.90;99.90;;;;;;5109010;28;20047;-66
2023/05/02 05:46:34;;;;;;;0.35;0.20;;;7.90;99.90;;;;;;5126397;28;20413;-65
2023/05/02 05:49:00;;;;;;;1.77;0.50;;;7.90;99.90;;;;;;5109448;28;20047;-67
2023/05/02 05:51:26;;;;;;;1.45;0.30;;;7.80;99.90;;;;;;5110122;28;20169;-66
2023/05/02 05:53:52;;;;;;;0.90;0.73;;;7.80;99.90;;;;;;5109297;28;20171;-67
2023/05/02 05:56:18;;;;;;;0.68;0.55;;;7.90;99.90;;;;;;5110580;28;20044;-65
2023/05/02 05:58:44;;;;;;;0.80;0.52;;;8.10;99.90;;;;;;5109947;28;20032;-66
2023/05/02 06:01:10;;;;;;;0.82;0.50;;;8.20;99.90;;;;;;5110600;28;20485;-66
2023/05/02 06:03:36;;;;;;;0.95;0.50;;;8.30;99.90;;;;;;5110252;28;20502;-67
2023/05/02 06:06:02;;;;;;;2.50;1.13;;;8.30;99.90;;;;;;5108440;28;20043;-66
2023/05/02 06:08:27;;;;;;;0.93;0.45;;;8.30;99.90;;;;;;5104270;28;20035;-66
2023/05/02 06:10:53;;;;;;;0.80;0.50;;;8.40;99.90;;;;;;5088508;28;20402;-65
2023/05/02 06:13:19;;;;;;;5.88;1.00;;;8.50;99.90;;;;;;5089126;28;20189;-67
2023/05/02 06:15:45;;;;;;;0.80;0.45;;;8.50;99.90;;;;;;5088847;28;20079;-65
2023/05/02 06:18:10;;;;;;;0.90;0.40;;;8.50;99.90;;;;;;5088716;28;20056;-66
2023/05/02 06:20:36;;;;;;;2.55;0.43;;;8.50;99.90;;;;;;5088298;28;20036;-66
2023/05/02 06:23:02;;;;;;;2.13;0.45;;;8.60;99.90;;;;;;5090137;28;20103;-67
2023/05/02 06:25:28;;;;;;;1.20;0.45;;;8.50;99.90;;;;;;5104439;28;20515;-66
2023/05/02 06:27:54;;;;;;;1.17;0.68;;;8.60;99.90;;;;;;5108436;28;20051;-67
2023/05/02 06:30:19;;;;;;;0.73;0.40;;;8.50;99.90;;;;;;5108785;28;20536;-66
2023/05/02 06:32:46;;;;;;;1.65;0.63;;;8.50;99.90;;;;;;5107469;28;20072;-67
2023/05/02 06:35:12;;;;;;;0.80;0.47;;;8.50;99.90;;;;;;5107657;28;20079;-67
2023/05/02 06:37:37;;;;;;;0.50;0.40;;;8.50;99.90;;;;;;5108780;28;20337;-66
2023/05/02 06:40:04;;;;;;;2.08;0.30;;;8.50;99.90;;;;;;5107744;28;20035;-66
2023/05/02 06:42:30;;;;;;;0.75;0.50;;;8.60;99.90;;;;;;5108447;28;20074;-67
2023/05/02 06:44:56;;;;;;;1.95;0.80;;;8.70;99.90;;;;;;5108760;28;20071;-67
2023/05/02 06:47:23;;;;;;;2.42;0.75;;;8.70;99.90;;;;;;5109660;28;20078;-66
2023/05/02 06:49:50;;;;;;;0.20;0.20;;;8.70;99.90;;;;;;5112219;28;20086;-68
2023/05/02 06:52:16;;;;;;;4.38;0.82;;;8.80;99.90;;;;;;5110980;28;20043;-67
2023/05/02 06:54:42;;;;;;;0.85;0.30;;;8.80;99.90;;;;;;5111454;28;20561;-67
2023/05/02 06:57:08;;;;;;;1.42;1.20;;;8.90;99.90;;;;;;5111831;28;20054;-67
2023/05/02 06:59:34;;;;;;;0.88;0.50;;;8.90;99.90;;;;;;5111898;28;20053;-66
2023/05/02 07:02:00;;;;;;;1.23;0.50;;;9.00;99.90;;;;;;5109928;28;20043;-68
2023/05/02 07:04:25;;;;;;;0.90;0.40;;;9.10;99.90;;;;;;5112159;28;20042;-67
2023/05/02 07:06:51;;;;;;;2.47;1.00;;;9.10;99.90;;;;;;5112083;28;20435;-66
2023/05/02 07:09:18;;;;;;;0.40;0.35;;;9.20;99.90;;;;;;5109920;28;20450;-66
2023/05/02 07:11:43;;;;;;;1.48;0.68;;;9.20;99.90;;;;;;5112166;28;20407;-64
2023/05/02 07:14:09;;;;;;;0.80;0.50;;;9.30;99.90;;;;;;5111560;28;20047;-67
2023/05/02 07:16:35;;;;;;;1.38;0.50;;;9.30;99.90;;;;;;5111299;28;20038;-66
2023/05/02 07:19:03;;;;;;;5.38;0.85;;;9.30;99.90;;;;;;5093296;28;20559;-65
2023/05/02 07:21:29;;;;;;;0.50;0.50;;;9.20;99.90;;;;;;5111777;28;20401;-67
2023/05/02 07:23:56;;;;;;;1.23;0.50;;;9.20;99.90;;;;;;5109621;28;20038;-65
2023/05/02 07:26:23;;;;;;;2.38;0.60;;;9.30;99.90;;;;;;5109848;28;20184;-66
2023/05/02 07:28:48;;;;;;;0.47;0.40;;;9.30;99.90;;;;;;5109363;28;20492;-66
2023/05/02 07:31:14;;;;;;;1.30;0.60;;;9.30;99.90;;;;;;5111502;28;20041;-64
2023/05/02 07:33:40;;;;;;;1.20;0.50;;;9.30;99.90;;;;;;5109922;28;20039;-65
2023/05/02 07:36:06;;;;;;;2.63;0.77;;;9.20;99.90;;;;;;5110384;28;20093;-67
2023/05/02 07:38:31;;;;;;;1.73;0.57;;;9.20;99.90;;;;;;5109598;28;20064;-67
2023/05/02 07:40:58;;;;;;;2.78;0.40;;;9.30;99.90;;;;;;5109618;28;20043;-66
2023/05/02 07:43:24;;;;;;;1.17;0.40;;;9.30;99.90;;;;;;5092326;28;20042;-67
2023/05/02 07:45:49;;;;;;;0.98;0.60;;;9.40;99.90;;;;;;5109822;28;20031;-67
2023/05/02 07:48:15;;;;;;;1.90;0.80;;;9.40;99.90;;;;;;5111102;28;20043;-67
2023/05/02 07:50:41;;;;;;;0.63;0.47;;;9.40;99.90;;;;;;5109333;28;20075;-66
2023/05/02 07:53:07;;;;;;;0.90;0.55;;;9.40;99.90;;;;;;5109752;28;20043;-67
2023/05/02 07:55:33;;;;;;;0.40;0.38;;;9.40;99.90;;;;;;5109379;28;20044;-67
2023/05/02 07:57:59;;;;;;;0.80;0.70;;;9.40;99.90;;;;;;5109553;28;20035;-68
2023/05/02 08:00:25;;;;;;;1.50;0.50;;;9.50;99.90;;;;;;5110821;28;20059;-66
2023/05/02 08:02:51;;;;;;;3.42;0.85;;;9.70;99.90;;;;;;5110507;28;20497;-67
2023/05/02 08:05:16;;;;;;;0.75;0.40;;;9.80;99.90;;;;;;5110114;28;20032;-67
2023/05/02 08:07:42;;;;;;;2.10;0.80;;;10.00;99.90;;;;;;5109094;28;20047;-67
2023/05/02 08:10:09;;;;;;;0.88;0.50;;;10.20;99.90;;;;;;5110778;28;20058;-67
2023/05/02 08:12:39;;;;;;;1.63;0.50;;;10.30;99.90;;;;;;5109948;28;20040;-68
2023/05/02 08:15:09;;;;;;;;;;;10.50;99.90;;;;;;5109912;28;20213;-68
2023/05/02 08:17:35;;;;;;;1.75;0.98;;;10.70;99.90;;;;;;5108589;28;20409;-67
2023/05/02 08:20:01;;;;;;;2.38;0.52;;;10.80;99.90;;;;;;5109104;28;20040;-67
2023/05/02 08:22:27;;;;;;;1.58;0.60;;;10.70;99.90;;;;;;5108904;28;20046;-67
2023/05/02 08:24:52;;;;;;;0.88;0.50;;;10.60;99.90;;;;;;5108641;28;20047;-67
2023/05/02 08:27:18;;;;;;;2.05;0.90;;;10.40;99.90;;;;;;5091974;28;20473;-67
2023/05/02 08:29:44;;;;;;;1.20;0.70;;;10.20;99.90;;;;;;5108769;28;20054;-66
2023/05/02 08:32:10;;;;;;;0.85;0.40;;;10.00;99.90;;;;;;5109390;28;20108;-67
2023/05/02 08:34:36;;;;;;;1.00;0.75;;;9.90;99.90;;;;;;5109017;28;20039;-67
2023/05/02 08:37:07;;;;;;;0.73;0.50;;;9.70;99.90;;;;;;5108599;28;20122;-67
2023/05/02 08:39:33;;;;;;;0.40;0.40;;;9.60;99.90;;;;;;5109780;28;20061;-67
2023/05/02 08:42:01;;;;;;;0.40;0.40;;;9.60;99.90;;;;;;5087252;28;20043;-67
2023/05/02 08:44:26;;;;;;;0.30;0.28;;;9.50;99.90;;;;;;5088468;28;20043;-66
2023/05/02 08:46:54;;;;;;;0.45;0.45;;;9.50;99.90;;;;;;5087961;28;20036;-66
2023/05/02 08:49:21;;;;;;;0.65;0.43;;;9.50;99.90;;;;;;5089882;28;20090;-67
2023/05/02 08:51:50;;;;;;;0.82;0.55;;;9.60;99.90;;;;;;5088237;28;20081;-67
2023/05/02 08:54:16;;;;;;;0.83;0.60;;;9.70;99.90;;;;;;5087602;28;20044;-68
2023/05/02 08:56:42;;;;;;;3.13;0.50;;;9.80;99.90;;;;;;5088380;28;20055;-67
2023/05/02 08:59:08;;;;;;;1.40;0.75;;;9.90;99.90;;;;;;5087930;28;20131;-67
2023/05/02 09:01:35;;;;;;;0.50;0.32;;;10.10;99.90;;;;;;5088926;28;20032;-65
2023/05/02 09:04:01;;;;;;;0.77;0.50;;;10.30;99.90;;;;;;5088058;28;20126;-67
2023/05/02 09:06:28;;;;;;;1.65;1.05;;;10.40;99.90;;;;;;5087870;28;20044;-66
2023/05/02 09:08:54;;;;;;;0.52;0.50;;;10.60;99.90;;;;;;5087204;28;20051;-66
2023/05/02 09:11:20;;;;;;;1.95;0.60;;;10.70;99.90;;;;;;5088585;28;20405;-65
2023/05/02 09:13:48;;;;;;;1.08;0.45;;;10.70;99.90;;;;;;5088677;28;20059;-67
2023/05/02 09:16:21;;;;;;;0.70;0.60;;;10.60;99.90;;;;;;5087936;28;20067;-66
2023/05/02 09:18:50;;;;;;;0.95;0.68;;;10.60;99.90;;;;;;5088176;28;20036;-67
2023/05/02 09:21:24;;;;;;;0.40;0.38;;;10.50;99.90;;;;;;5088804;28;20043;-67
2023/05/02 09:24:00;;;;;;;1.23;0.65;;;10.60;99.90;;;;;;5088723;28;20039;-65
2023/05/02 09:26:33;;;;;;;0.32;0.25;;;10.80;99.90;;;;;;5089034;28;20394;-66
2023/05/02 09:29:01;;;;;;;0.68;0.60;;;10.90;99.90;;;;;;5087318;28;20048;-65
2023/05/02 09:31:35;;;;;;;0.63;0.60;;;11.00;99.90;;;;;;5087702;28;20040;-66
2023/05/02 09:34:15;;;;;;;3.03;0.40;;;11.10;99.90;;;;;;5087521;28;20047;-67
2023/05/02 09:36:46;;;;;;;1.38;0.57;;;11.10;99.90;;;;;;5087080;28;20066;-67
2023/05/02 09:39:14;;;;;;;1.50;0.38;;;11.20;99.90;;;;;;5087250;28;20047;-67
2023/05/02 09:41:44;;;;;;;0.47;0.43;;;11.20;99.90;;;;;;5088262;28;20040;-67
2023/05/02 09:44:23;;;;;;;1.55;0.45;;;11.20;99.90;;;;;;5087246;28;20035;-66
2023/05/02 09:46:51;;;;;;;0.43;0.20;;;11.10;99.90;;;;;;5087489;28;20099;-66
2023/05/02 09:49:18;;;;;;;4.28;0.85;;;11.10;99.90;;;;;;5086601;28;20072;-66
2023/05/02 09:51:48;;;;;;;2.15;0.50;;;11.10;99.90;;;;;;5087814;28;20084;-66
2023/05/02 09:54:32;;;;;;;;;;;11.10;99.90;;;;;;5088039;28;20075;-67
2023/05/02 09:56:58;;;;;;;0.35;0.28;;;10.90;99.90;;;;;;5069592;28;19924;-65
2023/05/02 09:59:24;;;;;;;0.50;0.40;;;10.90;99.90;;;;;;5087715;28;20105;-65
2023/05/02 10:02:02;;;;;;;1.55;0.38;;;10.80;99.90;;;;;;5087594;28;20044;-67
2023/05/02 10:04:29;;;;;;;0.32;0.32;;;10.80;99.90;;;;;;5086806;28;20047;-66
2023/05/02 10:06:56;;;;;;;0.20;0.20;;;10.90;99.90;;;;;;5088321;28;20802;-69
2023/05/02 10:09:22;;;;;;;0.57;0.43;;;11.00;99.90;;;;;;5102000;28;20039;-66
2023/05/02 10:11:55;;;;;;;0.90;0.52;;;11.10;99.90;;;;;;5109006;28;20457;-68
2023/05/02 10:14:24;;;;;;;1.40;0.70;;;11.30;99.90;;;;;;5106973;28;20451;-67
2023/05/02 10:17:02;;;;;;;0.45;0.28;;;11.40;99.90;;;;;;5108416;28;20069;-68
2023/05/02 10:19:59;;;;;;;0.82;0.70;;;11.60;99.90;;;;;;5109123;28;20055;-68
2023/05/02 10:22:26;;;;;;;2.58;0.47;;;11.70;99.90;;;;;;5093575;28;20039;-66
2023/05/02 10:24:52;;;;;;;1.27;0.30;;;11.80;99.90;;;;;;5111242;28;20042;-66
2023/05/02 10:27:18;;;;;;;1.80;0.60;;;11.70;99.90;;;;;;5111756;28;20465;-67
2023/05/02 10:29:45;;;;;;;1.73;0.82;;;11.80;99.90;;;;;;5094336;28;20097;-67
2023/05/02 10:32:14;;;;;;;1.85;0.40;;;12.20;99.90;;;;;;5110709;28;20039;-65
2023/05/02 10:34:41;;;;;;;0.50;0.30;;;12.30;99.90;;;;;;5111200;28;20046;-66
2023/05/02 10:37:06;;;;;;;2.85;0.30;;;12.40;99.90;;;;;;5110852;28;20092;-64
2023/05/02 10:39:32;;;;;;;0.40;0.20;;;12.30;99.90;;;;;;5110067;28;20031;-67
2023/05/02 10:42:01;;;;;;;1.30;0.40;;;12.30;99.90;;;;;;5111235;28;20445;-67
2023/05/02 10:44:33;;;;;;;0.75;0.30;;;12.20;99.90;;;;;;5110934;28;20040;-66
2023/05/02 10:46:59;;;;;;;0.35;0.30;;;12.20;99.90;;;;;;5111262;28;20036;-67
2023/05/02 10:49:28;;;;;;;1.25;0.52;;;12.10;99.90;;;;;;5094000;28;20500;-67
2023/05/02 10:51:54;;;;;;;0.63;0.43;;;12.20;99.90;;;;;;5093410;28;20028;-67
2023/05/02 10:54:24;;;;;;;0.10;0.10;;;12.50;99.90;;;;;;5110931;28;20047;-66
2023/05/02 10:57:08;;;;;;;0.45;0.30;;;12.70;99.90;;;;;;5112447;28;20031;-66
2023/05/02 10:59:43;;;;;;;2.65;0.50;;;12.80;99.90;;;;;;5110215;28;20044;-67
2023/05/02 11:02:24;;;;;;;1.17;0.50;;;12.80;99.90;;;;;;5110919;28;20043;-66
2023/05/02 11:05:05;;;;;;;0.28;0.28;;;12.70;99.90;;;;;;5112229;28;20032;-66
2023/05/02 11:07:35;;;;;;;0.40;0.30;;;12.60;99.90;;;;;;5110043;28;20515;-66
2023/05/02 11:10:16;;;;;;;0.50;0.30;;;12.40;99.90;;;;;;5111758;28;20512;-67
2023/05/02 11:12:49;;;;;;;1.45;0.47;;;12.30;99.90;;;;;;5109915;28;20407;-67
2023/05/02 11:15:27;;;;;;;0.30;0.20;;;12.30;99.90;;;;;;5111926;28;20040;-67
2023/05/02 11:18:08;;;;;;;0.30;0.20;;;12.30;99.90;;;;;;5110275;28;20538;-68
2023/05/02 11:20:35;;;;;;;0.20;0.10;;;12.40;99.90;;;;;;5109720;28;20036;-67
2023/05/02 11:23:20;;;;;;;0.60;0.30;;;12.60;99.90;;;;;;5110261;28;20040;-67
2023/05/02 11:25:47;;;;;;;1.90;0.40;;;13.40;99.90;;;;;;5110330;28;20046;-67
2023/05/02 11:28:35;;;;;;;0.40;0.30;;;14.10;99.90;;;;;;5111275;28;20472;-67
2023/05/02 11:31:01;;;;;;;1.85;0.38;;;14.50;99.90;;;;;;5110119;28;20046;-66
2023/05/02 11:33:28;;;;;;;0.40;0.20;;;14.40;99.90;;;;;;5108979;28;20525;-67
2023/05/02 11:35:55;;;;;;;1.02;0.43;;;14.20;99.90;;;;;;5109891;28;20396;-66
2023/05/02 11:38:21;;;;;;;0.20;0.20;;;14.10;99.90;;;;;;5093030;28;20040;-67
2023/05/02 11:41:01;;;;;;;1.67;0.52;;;13.80;99.90;;;;;;5109255;28;20043;-66
2023/05/02 11:43:28;;;;;;;0.55;0.20;;;13.60;99.90;;;;;;5110101;28;20135;-67
2023/05/02 11:45:55;;;;;;;0.68;0.30;;;13.40;99.90;;;;;;5110056;28;20413;-67
2023/05/02 11:48:22;;;;;;;0.85;0.30;;;13.10;99.90;;;;;;5109387;28;20043;-67
2023/05/02 11:50:50;;;;;;;1.27;0.82;;;12.90;99.90;;;;;;5109949;28;20130;-66
2023/05/02 11:53:21;;;;;;;1.20;0.52;;;12.80;99.90;;;;;;5109518;28;20071;-66
2023/05/02 11:55:52;;;;;;;3.55;0.20;;;12.60;99.90;;;;;;5109196;28;20082;-66
2023/05/02 11:58:21;;;;;;;1.63;0.47;;;12.50;99.90;;;;;;5109419;28;20055;-65
2023/05/02 12:00:47;;;;;;;1.90;0.60;;;12.50;99.90;;;;;;5109723;28;20039;-66
2023/05/02 12:03:31;;;;;;;0.57;0.40;;;12.40;99.90;;;;;;5108876;28;20043;-66
2023/05/02 12:06:11;;;;;;;3.78;0.60;;;12.50;99.90;;;;;;5109672;28;20484;-65
2023/05/02 12:08:39;;;;;;;1.00;0.30;;;12.50;99.90;;;;;;5109168;28;20043;-64
2023/05/02 12:11:05;;;;;;;0.93;0.45;;;12.60;99.90;;;;;;5109604;28;20039;-65
2023/05/02 12:13:31;;;;;;;1.27;0.43;;;12.50;99.90;;;;;;5109319;28;20451;-64
2023/05/02 12:15:57;;;;;;;0.63;0.30;;;12.30;99.90;;;;;;5110188;28;20138;-66
2023/05/02 12:18:25;;;;;;;1.08;0.38;;;12.30;99.90;;;;;;5110645;28;20097;-67
2023/05/02 12:20:54;;;;;;;0.45;0.38;;;12.20;99.90;;;;;;5109374;28;20036;-65
2023/05/02 12:23:22;;;;;;;0.22;0.20;;;12.30;99.90;;;;;;5109737;28;20051;-66
2023/05/02 12:25:48;;;;;;;0.82;0.82;;;12.30;99.90;;;;;;5110310;28;20039;-65
2023/05/02 12:28:16;;;;;;;0.52;0.25;;;12.20;99.90;;;;;;5108941;28;20188;-66
2023/05/02 12:30:48;;;;;;;1.63;0.55;;;12.00;99.90;;;;;;5108341;28;20176;-65
2023/05/02 12:33:15;;;;;;;0.73;0.38;;;11.70;99.90;;;;;;5110659;28;20144;-66
2023/05/02 12:35:41;;;;;;;1.15;0.50;;;11.50;99.90;;;;;;5110524;28;20111;-66
2023/05/02 12:38:21;;;;;;;1.58;0.60;;;11.40;99.90;;;;;;5108149;28;20584;-65
2023/05/02 12:40:56;;;;;;;1.13;0.40;;;11.30;99.90;;;;;;5108845;28;20118;-68
2023/05/02 12:43:22;;;;;;;0.50;0.50;;;11.40;99.90;;;;;;5109070;28;20043;-66
2023/05/02 12:45:48;;;;;;;1.23;0.50;;;11.50;99.90;;;;;;5107761;28;20039;-67
2023/05/02 12:48:19;;;;;;;0.60;0.22;;;11.60;99.90;;;;;;5109857;28;20055;-67
2023/05/02 12:50:45;;;;;;;0.40;0.17;;;11.80;99.90;;;;;;5108236;28;20444;-66
2023/05/02 12:53:11;;;;;;;0.47;0.30;;;12.00;99.90;;;;;;5109708;28;20508;-66
2023/05/02 12:55:37;;;;;;;0.85;0.38;;;12.10;99.90;;;;;;5109959;28;20124;-67
2023/05/02 12:58:05;;;;;;;0.60;0.35;;;12.20;99.90;;;;;;5109280;28;20138;-66